Fairmont, Oklahoma
Current Conditions -  °F | °C
As of 5:50 PM on Saturday 25 Oct 2014 (Local Time) from KWDG Reporting Station
Clear Clear  
Wind Chill: 88°   Ceiling: Unl
Heat Index: 88°   Visibility: 10mi
Dew Point: 59°   Wind: 12mph
Humidity: 38%   Direction: 180°S
Pressure: 29.98"   Gusts: NA
Location:  36.36°N, 97.71°W
Report Text: KWDG 252250Z 18010KT 10SM SKC 31/15 A2998
Loading
Personal Weather Stations






























Interactive Weather Map
Tropical Storm Tracking
New forecast layout! Learn more

10-Day Weather Forecast

Advertisements
Track Severe Weather on mobile